sensor_id;sensor_type;location;lat;lon;timestamp;P1;durP1;ratioP1;P2;durP2;ratioP2
37771;SDS011;23610;59.380;24.642;2022-09-02T00:05:00;1.75;;;0.68;;
37771;SDS011;23610;59.380;24.642;2022-09-02T00:10:26;1.70;;;0.73;;
37771;SDS011;23610;59.380;24.642;2022-09-02T00:15:42;0.57;;;0.50;;
37771;SDS011;23610;59.380;24.642;2022-09-02T00:21:46;2.08;;;0.80;;
37771;SDS011;23610;59.380;24.642;2022-09-02T00:27:11;1.25;;;0.63;;
37771;SDS011;23610;59.380;24.642;2022-09-02T00:32:37;0.65;;;0.55;;
37771;SDS011;23610;59.380;24.642;2022-09-02T00:37:56;0.70;;;0.70;;
37771;SDS011;23610;59.380;24.642;2022-09-02T00:43:09;0.65;;;0.65;;
37771;SDS011;23610;59.380;24.642;2022-09-02T00:48:32;2.17;;;0.70;;
37771;SDS011;23610;59.380;24.642;2022-09-02T00:53:54;0.95;;;0.50;;
37771;SDS011;23610;59.380;24.642;2022-09-02T00:59:11;2.45;;;0.77;;
37771;SDS011;23610;59.380;24.642;2022-09-02T01:04:29;1.08;;;0.90;;
37771;SDS011;23610;59.380;24.642;2022-09-02T01:09:58;0.68;;;0.68;;
37771;SDS011;23610;59.380;24.642;2022-09-02T01:15:20;1.10;;;0.95;;
37771;SDS011;23610;59.380;24.642;2022-09-02T01:20:34;4.30;;;1.00;;
37771;SDS011;23610;59.380;24.642;2022-09-02T01:25:46;1.58;;;1.20;;
37771;SDS011;23610;59.380;24.642;2022-09-02T01:31:01;0.80;;;0.80;;
37771;SDS011;23610;59.380;24.642;2022-09-02T01:36:22;1.00;;;0.90;;
37771;SDS011;23610;59.380;24.642;2022-09-02T01:41:44;0.63;;;0.63;;
37771;SDS011;23610;59.380;24.642;2022-09-02T01:47:12;1.60;;;1.05;;
37771;SDS011;23610;59.380;24.642;2022-09-02T01:52:52;1.30;;;1.20;;
37771;SDS011;23610;59.380;24.642;2022-09-02T02:03:11;0.73;;;0.73;;
37771;SDS011;23610;59.380;24.642;2022-09-02T02:08:26;1.20;;;0.80;;
37771;SDS011;23610;59.380;24.642;2022-09-02T02:13:43;1.15;;;1.00;;
37771;SDS011;23610;59.380;24.642;2022-09-02T02:19:03;2.13;;;0.88;;
37771;SDS011;23610;59.380;24.642;2022-09-02T02:24:29;1.45;;;1.27;;
37771;SDS011;23610;59.380;24.642;2022-09-02T02:29:36;1.30;;;1.20;;
37771;SDS011;23610;59.380;24.642;2022-09-02T02:34:50;0.98;;;0.88;;
37771;SDS011;23610;59.380;24.642;2022-09-02T02:40:03;1.10;;;1.00;;
37771;SDS011;23610;59.380;24.642;2022-09-02T02:45:19;1.58;;;0.98;;
37771;SDS011;23610;59.380;24.642;2022-09-02T02:50:35;1.10;;;1.00;;
37771;SDS011;23610;59.380;24.642;2022-09-02T02:55:44;1.42;;;0.93;;
37771;SDS011;23610;59.380;24.642;2022-09-02T03:00:52;1.10;;;1.05;;
37771;SDS011;23610;59.380;24.642;2022-09-02T03:06:11;1.00;;;0.90;;
37771;SDS011;23610;59.380;24.642;2022-09-02T03:11:23;0.90;;;0.80;;
37771;SDS011;23610;59.380;24.642;2022-09-02T03:16:41;3.22;;;1.35;;
37771;SDS011;23610;59.380;24.642;2022-09-02T03:22:02;2.93;;;1.47;;
37771;SDS011;23610;59.380;24.642;2022-09-02T03:27:13;3.25;;;1.17;;
37771;SDS011;23610;59.380;24.642;2022-09-02T03:32:24;1.60;;;1.40;;
37771;SDS011;23610;59.380;24.642;2022-09-02T03:37:42;2.63;;;1.23;;
37771;SDS011;23610;59.380;24.642;2022-09-02T03:42:50;2.50;;;1.60;;
37771;SDS011;23610;59.380;24.642;2022-09-02T03:48:07;2.13;;;1.50;;
37771;SDS011;23610;59.380;24.642;2022-09-02T03:53:25;5.93;;;1.75;;
37771;SDS011;23610;59.380;24.642;2022-09-02T04:04:17;2.03;;;1.15;;
37771;SDS011;23610;59.380;24.642;2022-09-02T04:09:38;1.77;;;1.20;;
37771;SDS011;23610;59.380;24.642;2022-09-02T04:15:05;1.88;;;1.02;;
37771;SDS011;23610;59.380;24.642;2022-09-02T04:20:24;1.05;;;0.82;;
37771;SDS011;23610;59.380;24.642;2022-09-02T04:25:37;1.83;;;1.15;;
37771;SDS011;23610;59.380;24.642;2022-09-02T04:30:53;2.22;;;1.00;;
37771;SDS011;23610;59.380;24.642;2022-09-02T04:36:07;2.88;;;0.98;;
37771;SDS011;23610;59.380;24.642;2022-09-02T04:41:43;1.85;;;0.75;;
37771;SDS011;23610;59.380;24.642;2022-09-02T04:46:56;1.55;;;0.90;;
37771;SDS011;23610;59.380;24.642;2022-09-02T04:52:11;2.78;;;0.70;;
37771;SDS011;23610;59.380;24.642;2022-09-02T04:57:40;1.63;;;0.80;;
37771;SDS011;23610;59.380;24.642;2022-09-02T05:02:52;2.33;;;0.80;;
37771;SDS011;23610;59.380;24.642;2022-09-02T05:08:17;1.17;;;0.80;;
37771;SDS011;23610;59.380;24.642;2022-09-02T05:13:36;1.80;;;0.80;;
37771;SDS011;23610;59.380;24.642;2022-09-02T05:18:57;0.60;;;0.60;;
37771;SDS011;23610;59.380;24.642;2022-09-02T05:24:12;0.88;;;0.88;;
37771;SDS011;23610;59.380;24.642;2022-09-02T05:29:44;1.08;;;1.00;;
37771;SDS011;23610;59.380;24.642;2022-09-02T05:35:01;1.10;;;0.73;;
37771;SDS011;23610;59.380;24.642;2022-09-02T05:40:27;0.95;;;0.70;;
37771;SDS011;23610;59.380;24.642;2022-09-02T05:45:43;1.92;;;1.15;;
37771;SDS011;23610;59.380;24.642;2022-09-02T05:51:11;1.15;;;0.70;;
37771;SDS011;23610;59.380;24.642;2022-09-02T05:56:28;0.60;;;0.60;;
37771;SDS011;23610;59.380;24.642;2022-09-02T06:02:27;0.70;;;0.70;;
37771;SDS011;23610;59.380;24.642;2022-09-02T06:07:38;1.02;;;0.90;;
37771;SDS011;23610;59.380;24.642;2022-09-02T06:13:03;2.40;;;0.77;;
37771;SDS011;23610;59.380;24.642;2022-09-02T06:18:16;1.55;;;0.80;;
37771;SDS011;23610;59.380;24.642;2022-09-02T06:23:43;1.05;;;0.70;;
37771;SDS011;23610;59.380;24.642;2022-09-02T06:29:05;3.67;;;0.80;;
37771;SDS011;23610;59.380;24.642;2022-09-02T06:39:49;2.35;;;0.90;;
37771;SDS011;23610;59.380;24.642;2022-09-02T06:45:00;4.22;;;0.70;;
37771;SDS011;23610;59.380;24.642;2022-09-02T06:50:13;1.90;;;0.93;;
37771;SDS011;23610;59.380;24.642;2022-09-02T06:55:34;2.58;;;1.17;;
37771;SDS011;23610;59.380;24.642;2022-09-02T07:01:09;0.80;;;0.80;;
37771;SDS011;23610;59.380;24.642;2022-09-02T07:11:49;2.55;;;1.08;;
37771;SDS011;23610;59.380;24.642;2022-09-02T07:17:12;0.90;;;0.70;;
37771;SDS011;23610;59.380;24.642;2022-09-02T07:22:33;4.65;;;1.10;;
37771;SDS011;23610;59.380;24.642;2022-09-02T07:27:54;3.30;;;1.30;;
37771;SDS011;23610;59.380;24.642;2022-09-02T07:33:03;1.20;;;0.80;;
37771;SDS011;23610;59.380;24.642;2022-09-02T07:38:27;1.63;;;0.77;;
37771;SDS011;23610;59.380;24.642;2022-09-02T07:43:41;0.88;;;0.70;;
37771;SDS011;23610;59.380;24.642;2022-09-02T07:49:13;1.05;;;0.73;;
37771;SDS011;23610;59.380;24.642;2022-09-02T07:54:25;1.25;;;1.08;;
37771;SDS011;23610;59.380;24.642;2022-09-02T07:59:50;0.70;;;0.70;;
37771;SDS011;23610;59.380;24.642;2022-09-02T08:05:01;2.50;;;0.60;;
37771;SDS011;23610;59.380;24.642;2022-09-02T08:10:23;2.08;;;0.93;;
37771;SDS011;23610;59.380;24.642;2022-09-02T08:15:33;1.17;;;0.70;;
37771;SDS011;23610;59.380;24.642;2022-09-02T08:20:52;0.70;;;0.70;;
37771;SDS011;23610;59.380;24.642;2022-09-02T08:26:03;6.18;;;0.80;;
37771;SDS011;23610;59.380;24.642;2022-09-02T08:31:19;2.78;;;1.15;;
37771;SDS011;23610;59.380;24.642;2022-09-02T08:36:36;2.05;;;0.85;;
37771;SDS011;23610;59.380;24.642;2022-09-02T08:59:36;1.25;;;0.82;;
37771;SDS011;23610;59.380;24.642;2022-09-02T09:21:15;2.78;;;0.60;;
37771;SDS011;23610;59.380;24.642;2022-09-02T09:26:40;0.38;;;0.30;;
37771;SDS011;23610;59.380;24.642;2022-09-02T09:32:07;2.47;;;0.70;;
37771;SDS011;23610;59.380;24.642;2022-09-02T09:37:47;4.45;;;0.95;;
37771;SDS011;23610;59.380;24.642;2022-09-02T09:48:20;0.45;;;0.40;;
37771;SDS011;23610;59.380;24.642;2022-09-02T09:53:32;4.50;;;0.82;;
37771;SDS011;23610;59.380;24.642;2022-09-02T09:58:55;0.45;;;0.45;;
37771;SDS011;23610;59.380;24.642;2022-09-02T10:04:12;1.95;;;0.60;;
37771;SDS011;23610;59.380;24.642;2022-09-02T10:09:44;1.45;;;0.45;;
37771;SDS011;23610;59.380;24.642;2022-09-02T10:15:02;0.47;;;0.47;;
37771;SDS011;23610;59.380;24.642;2022-09-02T10:26:42;0.75;;;0.52;;
37771;SDS011;23610;59.380;24.642;2022-09-02T10:49:37;0.60;;;0.60;;
37771;SDS011;23610;59.380;24.642;2022-09-02T11:01:03;2.08;;;0.57;;
37771;SDS011;23610;59.380;24.642;2022-09-02T11:06:34;1.23;;;0.32;;
37771;SDS011;23610;59.380;24.642;2022-09-02T11:39:55;1.25;;;0.73;;
37771;SDS011;23610;59.380;24.642;2022-09-02T11:56:48;0.30;;;0.30;;
37771;SDS011;23610;59.380;24.642;2022-09-02T12:02:10;0.63;;;0.20;;
37771;SDS011;23610;59.380;24.642;2022-09-02T12:07:48;1.85;;;0.40;;
37771;SDS011;23610;59.380;24.642;2022-09-02T12:18:27;0.52;;;0.30;;
37771;SDS011;23610;59.380;24.642;2022-09-02T12:29:13;0.40;;;0.40;;
37771;SDS011;23610;59.380;24.642;2022-09-02T12:40:02;0.43;;;0.20;;
37771;SDS011;23610;59.380;24.642;2022-09-02T12:45:32;1.95;;;0.45;;
37771;SDS011;23610;59.380;24.642;2022-09-02T12:50:56;0.20;;;0.20;;
37771;SDS011;23610;59.380;24.642;2022-09-02T12:56:03;1.48;;;0.45;;
37771;SDS011;23610;59.380;24.642;2022-09-02T13:35:07;7.30;;;0.82;;
37771;SDS011;23610;59.380;24.642;2022-09-02T13:40:43;0.70;;;0.70;;
37771;SDS011;23610;59.380;24.642;2022-09-02T13:46:14;2.40;;;0.40;;
37771;SDS011;23610;59.380;24.642;2022-09-02T13:51:25;0.40;;;0.40;;
37771;SDS011;23610;59.380;24.642;2022-09-02T13:56:51;0.60;;;0.35;;
37771;SDS011;23610;59.380;24.642;2022-09-02T14:02:28;0.40;;;0.40;;
37771;SDS011;23610;59.380;24.642;2022-09-02T14:08:28;0.65;;;0.52;;
37771;SDS011;23610;59.380;24.642;2022-09-02T14:13:51;0.50;;;0.50;;
37771;SDS011;23610;59.380;24.642;2022-09-02T14:19:10;1.98;;;0.30;;
37771;SDS011;23610;59.380;24.642;2022-09-02T14:24:26;0.70;;;0.70;;
37771;SDS011;23610;59.380;24.642;2022-09-02T14:29:52;0.60;;;0.60;;
37771;SDS011;23610;59.380;24.642;2022-09-02T14:35:23;2.85;;;0.40;;
37771;SDS011;23610;59.380;24.642;2022-09-02T14:40:39;0.75;;;0.40;;
37771;SDS011;23610;59.380;24.642;2022-09-02T14:45:50;1.02;;;0.52;;
37771;SDS011;23610;59.380;24.642;2022-09-02T14:51:09;0.20;;;0.20;;
37771;SDS011;23610;59.380;24.642;2022-09-02T14:56:45;0.38;;;0.30;;
37771;SDS011;23610;59.380;24.642;2022-09-02T15:02:18;0.20;;;0.20;;
37771;SDS011;23610;59.380;24.642;2022-09-02T15:07:34;0.98;;;0.50;;
37771;SDS011;23610;59.380;24.642;2022-09-02T15:12:45;0.38;;;0.38;;
37771;SDS011;23610;59.380;24.642;2022-09-02T15:18:06;0.30;;;0.30;;
37771;SDS011;23610;59.380;24.642;2022-09-02T15:23:30;0.40;;;0.40;;
37771;SDS011;23610;59.380;24.642;2022-09-02T15:29:00;0.52;;;0.40;;
37771;SDS011;23610;59.380;24.642;2022-09-02T15:34:06;0.80;;;0.57;;
37771;SDS011;23610;59.380;24.642;2022-09-02T15:39:26;0.50;;;0.50;;
37771;SDS011;23610;59.380;24.642;2022-09-02T15:44:40;1.38;;;0.43;;
37771;SDS011;23610;59.380;24.642;2022-09-02T15:49:53;0.45;;;0.45;;
37771;SDS011;23610;59.380;24.642;2022-09-02T15:55:04;0.30;;;0.30;;
37771;SDS011;23610;59.380;24.642;2022-09-02T16:00:22;2.58;;;1.30;;
37771;SDS011;23610;59.380;24.642;2022-09-02T16:05:41;8.15;;;3.60;;
37771;SDS011;23610;59.380;24.642;2022-09-02T16:10:48;1.67;;;0.98;;
37771;SDS011;23610;59.380;24.642;2022-09-02T16:15:58;3.97;;;1.50;;
37771;SDS011;23610;59.380;24.642;2022-09-02T16:21:10;0.63;;;0.60;;
37771;SDS011;23610;59.380;24.642;2022-09-02T16:26:23;1.38;;;0.80;;
37771;SDS011;23610;59.380;24.642;2022-09-02T16:31:35;1.90;;;0.90;;
37771;SDS011;23610;59.380;24.642;2022-09-02T16:36:59;1.23;;;0.80;;
37771;SDS011;23610;59.380;24.642;2022-09-02T16:42:03;3.10;;;2.72;;
37771;SDS011;23610;59.380;24.642;2022-09-02T16:47:21;2.78;;;2.10;;
37771;SDS011;23610;59.380;24.642;2022-09-02T16:52:33;3.07;;;1.40;;
37771;SDS011;23610;59.380;24.642;2022-09-02T16:57:40;7.65;;;0.98;;
37771;SDS011;23610;59.380;24.642;2022-09-02T17:02:54;2.15;;;0.50;;
37771;SDS011;23610;59.380;24.642;2022-09-02T17:08:00;2.13;;;0.93;;
37771;SDS011;23610;59.380;24.642;2022-09-02T17:13:08;14.75;;;6.45;;
37771;SDS011;23610;59.380;24.642;2022-09-02T17:18:17;32.47;;;10.70;;
37771;SDS011;23610;59.380;24.642;2022-09-02T17:23:23;8.32;;;4.63;;
37771;SDS011;23610;59.380;24.642;2022-09-02T17:28:31;10.05;;;4.78;;
37771;SDS011;23610;59.380;24.642;2022-09-02T17:33:35;10.80;;;5.55;;
37771;SDS011;23610;59.380;24.642;2022-09-02T17:38:38;7.32;;;4.32;;
37771;SDS011;23610;59.380;24.642;2022-09-02T17:43:48;5.07;;;4.10;;
37771;SDS011;23610;59.380;24.642;2022-09-02T17:48:52;8.07;;;4.55;;
37771;SDS011;23610;59.380;24.642;2022-09-02T17:54:17;11.00;;;3.80;;
37771;SDS011;23610;59.380;24.642;2022-09-02T18:10:52;9.90;;;5.82;;
37771;SDS011;23610;59.380;24.642;2022-09-02T18:16:25;8.65;;;6.00;;
37771;SDS011;23610;59.380;24.642;2022-09-02T18:21:46;10.85;;;5.25;;
37771;SDS011;23610;59.380;24.642;2022-09-02T18:49:33;16.17;;;9.00;;
37771;SDS011;23610;59.380;24.642;2022-09-02T18:54:48;21.52;;;10.05;;
37771;SDS011;23610;59.380;24.642;2022-09-02T19:00:08;16.85;;;8.20;;
37771;SDS011;23610;59.380;24.642;2022-09-02T19:05:19;11.65;;;6.05;;
37771;SDS011;23610;59.380;24.642;2022-09-02T19:10:25;8.75;;;5.97;;
37771;SDS011;23610;59.380;24.642;2022-09-02T19:15:28;12.43;;;5.60;;
37771;SDS011;23610;59.380;24.642;2022-09-02T19:20:32;8.48;;;5.63;;
37771;SDS011;23610;59.380;24.642;2022-09-02T19:25:36;14.23;;;5.88;;
37771;SDS011;23610;59.380;24.642;2022-09-02T19:30:39;16.20;;;5.75;;
37771;SDS011;23610;59.380;24.642;2022-09-02T19:35:45;11.45;;;4.65;;
37771;SDS011;23610;59.380;24.642;2022-09-02T19:40:50;6.95;;;3.50;;
37771;SDS011;23610;59.380;24.642;2022-09-02T19:45:54;8.45;;;4.00;;
37771;SDS011;23610;59.380;24.642;2022-09-02T19:50:57;9.93;;;3.75;;
37771;SDS011;23610;59.380;24.642;2022-09-02T19:56:00;13.07;;;3.38;;
37771;SDS011;23610;59.380;24.642;2022-09-02T20:01:04;12.23;;;3.80;;
37771;SDS011;23610;59.380;24.642;2022-09-02T20:06:09;18.27;;;5.45;;
37771;SDS011;23610;59.380;24.642;2022-09-02T20:11:12;20.20;;;6.15;;
37771;SDS011;23610;59.380;24.642;2022-09-02T20:16:19;13.50;;;4.03;;
37771;SDS011;23610;59.380;24.642;2022-09-02T20:21:26;14.10;;;3.90;;
37771;SDS011;23610;59.380;24.642;2022-09-02T21:05:22;6.85;;;3.40;;
37771;SDS011;23610;59.380;24.642;2022-09-02T21:10:41;6.75;;;3.30;;
37771;SDS011;23610;59.380;24.642;2022-09-02T21:15:51;8.48;;;3.22;;
37771;SDS011;23610;59.380;24.642;2022-09-02T21:21:01;4.45;;;2.03;;
37771;SDS011;23610;59.380;24.642;2022-09-02T21:26:31;5.10;;;2.30;;
37771;SDS011;23610;59.380;24.642;2022-09-02T21:37:23;5.55;;;2.33;;
37771;SDS011;23610;59.380;24.642;2022-09-02T21:48:11;10.20;;;2.65;;
37771;SDS011;23610;59.380;24.642;2022-09-02T22:09:41;29.73;;;11.27;;
37771;SDS011;23610;59.380;24.642;2022-09-02T22:20:16;26.00;;;8.10;;
37771;SDS011;23610;59.380;24.642;2022-09-02T22:25:23;18.73;;;6.18;;
37771;SDS011;23610;59.380;24.642;2022-09-02T22:30:28;8.50;;;2.95;;
37771;SDS011;23610;59.380;24.642;2022-09-02T22:35:38;8.57;;;4.03;;
37771;SDS011;23610;59.380;24.642;2022-09-02T22:52:31;4.25;;;2.55;;
37771;SDS011;23610;59.380;24.642;2022-09-02T22:58:03;3.28;;;1.85;;
37771;SDS011;23610;59.380;24.642;2022-09-02T23:08:59;3.20;;;1.50;;
37771;SDS011;23610;59.380;24.642;2022-09-02T23:30:37;1.70;;;1.30;;
37771;SDS011;23610;59.380;24.642;2022-09-02T23:36:30;1.90;;;1.27;;
37771;SDS011;23610;59.380;24.642;2022-09-02T23:42:05;1.40;;;1.10;;
37771;SDS011;23610;59.380;24.642;2022-09-02T23:53:09;2.42;;;1.10;;
